sensor_id;sensor_type;location;lat;lon;timestamp;pressure;altitude;pressure_sealevel;temperature;humidity
46946;BME280;32679;40.810;14.498;2023-04-28T00:01:17;100483.84;;;13.61;68.88
46946;BME280;32679;40.810;14.498;2023-04-28T00:03:47;100481.81;;;13.58;67.88
46946;BME280;32679;40.810;14.498;2023-04-28T00:06:17;100491.50;;;13.65;68.27
46946;BME280;32679;40.810;14.498;2023-04-28T00:08:48;100481.69;;;13.51;69.28
46946;BME280;32679;40.810;14.498;2023-04-28T00:11:16;100492.53;;;13.56;68.92
46946;BME280;32679;40.810;14.498;2023-04-28T00:13:44;100488.56;;;13.57;69.00
46946;BME280;32679;40.810;14.498;2023-04-28T00:16:09;100480.41;;;13.45;69.56
46946;BME280;32679;40.810;14.498;2023-04-28T00:18:39;100486.09;;;13.52;67.79
46946;BME280;32679;40.810;14.498;2023-04-28T00:21:08;100493.00;;;13.58;67.07
46946;BME280;32679;40.810;14.498;2023-04-28T00:23:36;100485.72;;;13.54;67.95
46946;BME280;32679;40.810;14.498;2023-04-28T00:26:02;100493.25;;;13.50;69.37
46946;BME280;32679;40.810;14.498;2023-04-28T00:28:27;100490.56;;;13.57;69.01
46946;BME280;32679;40.810;14.498;2023-04-28T00:30:55;100484.47;;;13.51;69.51
46946;BME280;32679;40.810;14.498;2023-04-28T00:33:23;100490.66;;;13.38;69.50
46946;BME280;32679;40.810;14.498;2023-04-28T00:35:57;100483.50;;;13.40;69.54
46946;BME280;32679;40.810;14.498;2023-04-28T00:38:25;100484.69;;;13.39;69.36
46946;BME280;32679;40.810;14.498;2023-04-28T00:40:56;100492.81;;;13.48;69.34
46946;BME280;32679;40.810;14.498;2023-04-28T00:43:24;100488.78;;;13.45;70.32
46946;BME280;32679;40.810;14.498;2023-04-28T00:45:50;100484.31;;;13.41;69.94
46946;BME280;32679;40.810;14.498;2023-04-28T00:48:16;100473.94;;;13.41;70.14
46946;BME280;32679;40.810;14.498;2023-04-28T00:50:45;100481.13;;;13.42;70.00
46946;BME280;32679;40.810;14.498;2023-04-28T00:53:12;100484.38;;;13.44;70.26
46946;BME280;32679;40.810;14.498;2023-04-28T00:55:38;100488.34;;;13.43;70.11
46946;BME280;32679;40.810;14.498;2023-04-28T00:58:05;100477.19;;;13.43;70.67
46946;BME280;32679;40.810;14.498;2023-04-28T01:00:33;100477.91;;;13.40;70.87
46946;BME280;32679;40.810;14.498;2023-04-28T01:02:59;100471.44;;;13.36;71.56
46946;BME280;32679;40.810;14.498;2023-04-28T01:05:28;100477.66;;;13.26;70.19
46946;BME280;32679;40.810;14.498;2023-04-28T01:07:54;100477.66;;;13.26;69.93
46946;BME280;32679;40.810;14.498;2023-04-28T01:10:22;100469.47;;;13.14;69.64
46946;BME280;32679;40.810;14.498;2023-04-28T01:12:50;100478.53;;;13.30;67.39
46946;BME280;32679;40.810;14.498;2023-04-28T01:15:19;100489.09;;;13.40;65.18
46946;BME280;32679;40.810;14.498;2023-04-28T01:17:46;100488.19;;;13.32;65.46
46946;BME280;32679;40.810;14.498;2023-04-28T01:20:14;100484.03;;;13.23;66.08
46946;BME280;32679;40.810;14.498;2023-04-28T01:22:42;100493.69;;;13.29;64.53
46946;BME280;32679;40.810;14.498;2023-04-28T01:25:09;100488.00;;;13.22;65.18
46946;BME280;32679;40.810;14.498;2023-04-28T01:27:35;100494.44;;;13.26;64.53
46946;BME280;32679;40.810;14.498;2023-04-28T01:30:06;100489.63;;;13.23;64.83
46946;BME280;32679;40.810;14.498;2023-04-28T01:32:34;100502.47;;;13.27;64.95
46946;BME280;32679;40.810;14.498;2023-04-28T01:35:00;100500.00;;;13.22;66.11
46946;BME280;32679;40.810;14.498;2023-04-28T01:37:26;100495.47;;;13.18;65.92
46946;BME280;32679;40.810;14.498;2023-04-28T01:39:56;100500.25;;;13.17;66.31
46946;BME280;32679;40.810;14.498;2023-04-28T01:42:27;100492.69;;;13.18;65.63
46946;BME280;32679;40.810;14.498;2023-04-28T01:45:00;100502.81;;;13.26;65.63
46946;BME280;32679;40.810;14.498;2023-04-28T01:47:30;100510.34;;;13.22;65.27
46946;BME280;32679;40.810;14.498;2023-04-28T01:49:58;100503.69;;;13.30;64.57
46946;BME280;32679;40.810;14.498;2023-04-28T01:52:25;100517.97;;;13.25;65.03
46946;BME280;32679;40.810;14.498;2023-04-28T01:54:54;100513.06;;;13.18;66.42
46946;BME280;32679;40.810;14.498;2023-04-28T01:57:22;100514.97;;;13.14;67.15
46946;BME280;32679;40.810;14.498;2023-04-28T01:59:50;100523.00;;;13.16;67.16
46946;BME280;32679;40.810;14.498;2023-04-28T02:02:19;100517.34;;;13.12;67.98
46946;BME280;32679;40.810;14.498;2023-04-28T02:04:44;100523.59;;;13.05;68.54
46946;BME280;32679;40.810;14.498;2023-04-28T02:07:13;100515.97;;;13.02;69.20
46946;BME280;32679;40.810;14.498;2023-04-28T02:09:40;100515.66;;;13.07;70.92
46946;BME280;32679;40.810;14.498;2023-04-28T02:12:08;100514.97;;;13.14;72.17
46946;BME280;32679;40.810;14.498;2023-04-28T02:14:34;100527.94;;;13.22;72.21
46946;BME280;32679;40.810;14.498;2023-04-28T02:16:59;100528.25;;;13.21;72.60
46946;BME280;32679;40.810;14.498;2023-04-28T02:19:30;100533.03;;;13.20;72.25
46946;BME280;32679;40.810;14.498;2023-04-28T02:21:58;100526.53;;;13.13;70.95
46946;BME280;32679;40.810;14.498;2023-04-28T02:24:28;100533.16;;;13.04;70.25
46946;BME280;32679;40.810;14.498;2023-04-28T02:26:56;100529.81;;;12.95;69.98
46946;BME280;32679;40.810;14.498;2023-04-28T02:29:25;100532.84;;;13.09;69.23
46946;BME280;32679;40.810;14.498;2023-04-28T02:31:51;100533.75;;;12.94;70.09
46946;BME280;32679;40.810;14.498;2023-04-28T02:34:19;100531.44;;;12.77;71.37
46946;BME280;32679;40.810;14.498;2023-04-28T02:36:48;100543.56;;;12.65;71.22
46946;BME280;32679;40.810;14.498;2023-04-28T02:39:16;100535.41;;;12.56;70.99
46946;BME280;32679;40.810;14.498;2023-04-28T02:41:52;100543.34;;;12.54;71.93
46946;BME280;32679;40.810;14.498;2023-04-28T02:44:22;100544.81;;;12.48;72.79
46946;BME280;32679;40.810;14.498;2023-04-28T02:46:48;100545.63;;;12.49;71.19
46946;BME280;32679;40.810;14.498;2023-04-28T02:49:16;100545.25;;;12.50;71.70
46946;BME280;32679;40.810;14.498;2023-04-28T02:51:44;100553.19;;;12.48;71.61
46946;BME280;32679;40.810;14.498;2023-04-28T02:54:15;100550.31;;;12.45;72.25
46946;BME280;32679;40.810;14.498;2023-04-28T02:56:43;100550.31;;;12.45;71.49
46946;BME280;32679;40.810;14.498;2023-04-28T02:59:11;100552.75;;;12.46;72.13
46946;BME280;32679;40.810;14.498;2023-04-28T03:01:36;100552.81;;;12.50;71.31
46946;BME280;32679;40.810;14.498;2023-04-28T03:04:04;100559.06;;;12.43;72.10
46946;BME280;32679;40.810;14.498;2023-04-28T03:06:32;100566.13;;;12.37;71.71
46946;BME280;32679;40.810;14.498;2023-04-28T03:09:00;100573.59;;;12.33;73.70
46946;BME280;32679;40.810;14.498;2023-04-28T03:11:28;100570.72;;;12.29;74.16
46946;BME280;32679;40.810;14.498;2023-04-28T03:13:59;100571.38;;;12.23;74.44
46946;BME280;32679;40.810;14.498;2023-04-28T03:16:25;100569.84;;;12.25;75.59
46946;BME280;32679;40.810;14.498;2023-04-28T03:18:53;100569.03;;;12.25;76.07
46946;BME280;32679;40.810;14.498;2023-04-28T03:21:23;100566.22;;;12.25;75.58
46946;BME280;32679;40.810;14.498;2023-04-28T03:23:52;100575.25;;;12.18;75.21
46946;BME280;32679;40.810;14.498;2023-04-28T03:26:22;100570.66;;;12.26;76.38
46946;BME280;32679;40.810;14.498;2023-04-28T03:28:48;100575.06;;;12.27;76.05
46946;BME280;32679;40.810;14.498;2023-04-28T03:31:16;100581.97;;;12.33;76.20
46946;BME280;32679;40.810;14.498;2023-04-28T03:33:47;100585.94;;;12.32;75.51
46946;BME280;32679;40.810;14.498;2023-04-28T03:36:13;100574.03;;;12.35;75.41
46946;BME280;32679;40.810;14.498;2023-04-28T03:38:38;100575.66;;;12.36;76.23
46946;BME280;32679;40.810;14.498;2023-04-28T03:41:09;100575.22;;;12.34;76.76
46946;BME280;32679;40.810;14.498;2023-04-28T03:43:40;100580.13;;;12.41;76.13
46946;BME280;32679;40.810;14.498;2023-04-28T03:46:05;100575.44;;;12.45;75.90
46946;BME280;32679;40.810;14.498;2023-04-28T03:48:31;100577.84;;;12.46;76.34
46946;BME280;32679;40.810;14.498;2023-04-28T03:50:56;100580.59;;;12.43;77.00
46946;BME280;32679;40.810;14.498;2023-04-28T03:53:24;100576.53;;;12.40;78.21
46946;BME280;32679;40.810;14.498;2023-04-28T03:55:50;100577.44;;;12.44;77.92
46946;BME280;32679;40.810;14.498;2023-04-28T03:58:18;100573.53;;;12.49;77.68
46946;BME280;32679;40.810;14.498;2023-04-28T04:00:46;100586.59;;;12.45;78.31
46946;BME280;32679;40.810;14.498;2023-04-28T04:03:14;100589.34;;;12.41;78.41
46946;BME280;32679;40.810;14.498;2023-04-28T04:05:44;100595.44;;;12.47;78.69
46946;BME280;32679;40.810;14.498;2023-04-28T04:08:13;100589.41;;;12.45;79.77
46946;BME280;32679;40.810;14.498;2023-04-28T04:10:41;100593.97;;;12.53;79.16
46946;BME280;32679;40.810;14.498;2023-04-28T04:13:06;100592.41;;;12.55;79.46
46946;BME280;32679;40.810;14.498;2023-04-28T04:15:34;100596.75;;;12.53;79.99
46946;BME280;32679;40.810;14.498;2023-04-28T04:17:59;100593.16;;;12.52;79.84
46946;BME280;32679;40.810;14.498;2023-04-28T04:20:30;100599.31;;;12.62;79.58
46946;BME280;32679;40.810;14.498;2023-04-28T04:23:01;100603.88;;;12.50;80.22
46946;BME280;32679;40.810;14.498;2023-04-28T04:25:30;100601.25;;;12.57;81.21
46946;BME280;32679;40.810;14.498;2023-04-28T04:27:59;100617.09;;;12.73;80.87
46946;BME280;32679;40.810;14.498;2023-04-28T04:30:25;100608.38;;;12.74;80.98
46946;BME280;32679;40.810;14.498;2023-04-28T04:32:52;100610.81;;;12.95;81.65
46946;BME280;32679;40.810;14.498;2023-04-28T04:35:25;100619.53;;;13.55;78.70
46946;BME280;32679;40.810;14.498;2023-04-28T04:37:53;100629.31;;;14.14;74.99
46946;BME280;32679;40.810;14.498;2023-04-28T04:40:27;100626.06;;;14.65;72.63
46946;BME280;32679;40.810;14.498;2023-04-28T04:42:52;100613.75;;;15.07;71.09
46946;BME280;32679;40.810;14.498;2023-04-28T04:45:21;100625.81;;;15.45;69.08
46946;BME280;32679;40.810;14.498;2023-04-28T04:47:46;100629.03;;;15.88;67.53
46946;BME280;32679;40.810;14.498;2023-04-28T04:50:16;100625.31;;;16.24;65.06
46946;BME280;32679;40.810;14.498;2023-04-28T04:52:47;100640.06;;;16.76;63.04
46946;BME280;32679;40.810;14.498;2023-04-28T04:55:15;100640.22;;;17.19;61.19
46946;BME280;32679;40.810;14.498;2023-04-28T04:57:43;100611.78;;;17.49;59.44
46946;BME280;32679;40.810;14.498;2023-04-28T05:00:09;100647.63;;;18.02;57.00
46946;BME280;32679;40.810;14.498;2023-04-28T05:02:34;100642.34;;;18.37;56.07
46946;BME280;32679;40.810;14.498;2023-04-28T05:05:00;100652.38;;;18.73;54.74
46946;BME280;32679;40.810;14.498;2023-04-28T05:07:28;100647.72;;;19.26;53.72
46946;BME280;32679;40.810;14.498;2023-04-28T05:09:53;100653.91;;;19.76;51.38
46946;BME280;32679;40.810;14.498;2023-04-28T05:12:21;100653.28;;;20.03;51.17
46946;BME280;32679;40.810;14.498;2023-04-28T05:14:51;100656.19;;;20.40;49.48
46946;BME280;32679;40.810;14.498;2023-04-28T05:17:19;100654.75;;;20.63;49.69
46946;BME280;32679;40.810;14.498;2023-04-28T05:19:47;100659.75;;;20.86;47.10
46946;BME280;32679;40.810;14.498;2023-04-28T05:22:15;100656.59;;;20.80;49.12
46946;BME280;32679;40.810;14.498;2023-04-28T05:24:43;100657.03;;;20.75;49.16
46946;BME280;32679;40.810;14.498;2023-04-28T05:27:11;100660.41;;;20.97;49.29
46946;BME280;32679;40.810;14.498;2023-04-28T05:29:41;100666.22;;;20.00;49.92
46946;BME280;32679;40.810;14.498;2023-04-28T05:32:10;100664.50;;;20.13;50.83
46946;BME280;32679;40.810;14.498;2023-04-28T05:34:40;100670.22;;;20.51;48.97
46946;BME280;32679;40.810;14.498;2023-04-28T05:37:14;100667.84;;;19.98;49.78
46946;BME280;32679;40.810;14.498;2023-04-28T05:39:39;100665.69;;;20.16;49.32
46946;BME280;32679;40.810;14.498;2023-04-28T05:42:08;100669.03;;;20.04;49.39
46946;BME280;32679;40.810;14.498;2023-04-28T05:44:35;100678.88;;;20.75;47.01
46946;BME280;32679;40.810;14.498;2023-04-28T05:47:04;100682.63;;;21.33;47.13
46946;BME280;32679;40.810;14.498;2023-04-28T05:49:32;100672.19;;;21.57;45.97
46946;BME280;32679;40.810;14.498;2023-04-28T05:51:58;100676.97;;;21.33;46.02
46946;BME280;32679;40.810;14.498;2023-04-28T05:54:26;100676.16;;;21.63;46.49
46946;BME280;32679;40.810;14.498;2023-04-28T05:56:52;100678.25;;;21.59;46.78
46946;BME280;32679;40.810;14.498;2023-04-28T05:59:17;100681.88;;;22.10;45.03
46946;BME280;32679;40.810;14.498;2023-04-28T06:01:46;100684.50;;;22.01;45.46
46946;BME280;32679;40.810;14.498;2023-04-28T06:04:13;100687.31;;;22.28;44.71
46946;BME280;32679;40.810;14.498;2023-04-28T06:06:46;100685.88;;;22.39;44.14
46946;BME280;32679;40.810;14.498;2023-04-28T06:09:14;100685.06;;;22.62;44.51
46946;BME280;32679;40.810;14.498;2023-04-28T06:11:44;100685.09;;;22.82;43.84
46946;BME280;32679;40.810;14.498;2023-04-28T06:14:12;100684.63;;;22.84;43.46
46946;BME280;32679;40.810;14.498;2023-04-28T06:16:40;100686.06;;;22.95;43.85
46946;BME280;32679;40.810;14.498;2023-04-28T06:19:11;100688.47;;;22.54;44.93
46946;BME280;32679;40.810;14.498;2023-04-28T06:21:41;100695.78;;;22.74;44.98
46946;BME280;32679;40.810;14.498;2023-04-28T06:24:07;100704.84;;;23.09;42.36
46946;BME280;32679;40.810;14.498;2023-04-28T06:26:32;100694.53;;;23.91;42.11
46946;BME280;32679;40.810;14.498;2023-04-28T06:29:03;100709.56;;;23.56;41.95
46946;BME280;32679;40.810;14.498;2023-04-28T06:31:34;100716.72;;;23.24;44.24
46946;BME280;32679;40.810;14.498;2023-04-28T06:34:02;100709.56;;;22.72;44.39
46946;BME280;32679;40.810;14.498;2023-04-28T06:36:30;100713.78;;;22.88;44.93
46946;BME280;32679;40.810;14.498;2023-04-28T06:38:56;100710.25;;;23.96;43.26
46946;BME280;32679;40.810;14.498;2023-04-28T06:41:21;100704.88;;;22.86;44.18
46946;BME280;32679;40.810;14.498;2023-04-28T06:43:47;100712.28;;;23.79;43.75
46946;BME280;32679;40.810;14.498;2023-04-28T06:46:13;100716.41;;;24.27;43.20
46946;BME280;32679;40.810;14.498;2023-04-28T06:48:43;100715.03;;;24.51;42.17
46946;BME280;32679;40.810;14.498;2023-04-28T06:51:11;100717.81;;;24.84;41.78
46946;BME280;32679;40.810;14.498;2023-04-28T06:53:39;100709.84;;;24.14;43.41
46946;BME280;32679;40.810;14.498;2023-04-28T06:56:09;100712.34;;;23.75;42.43
46946;BME280;32679;40.810;14.498;2023-04-28T06:58:38;100724.06;;;24.14;42.66
46946;BME280;32679;40.810;14.498;2023-04-28T07:01:08;100716.91;;;23.89;43.56
46946;BME280;32679;40.810;14.498;2023-04-28T07:03:33;100719.16;;;23.42;44.07
46946;BME280;32679;40.810;14.498;2023-04-28T07:05:59;100718.09;;;23.92;43.17
46946;BME280;32679;40.810;14.498;2023-04-28T07:08:25;100711.09;;;24.62;42.03
46946;BME280;32679;40.810;14.498;2023-04-28T07:10:50;100720.53;;;24.42;42.22
46946;BME280;32679;40.810;14.498;2023-04-28T07:13:25;100704.56;;;23.96;42.87
46946;BME280;32679;40.810;14.498;2023-04-28T07:15:53;100710.94;;;24.36;42.18
46946;BME280;32679;40.810;14.498;2023-04-28T07:18:19;100710.03;;;24.39;41.98
46946;BME280;32679;40.810;14.498;2023-04-28T07:20:49;100713.50;;;24.30;41.15
46946;BME280;32679;40.810;14.498;2023-04-28T07:23:15;100708.75;;;23.91;43.05
46946;BME280;32679;40.810;14.498;2023-04-28T07:25:43;100708.25;;;24.62;40.94
46946;BME280;32679;40.810;14.498;2023-04-28T07:28:11;100706.38;;;24.06;42.47
46946;BME280;32679;40.810;14.498;2023-04-28T07:30:41;100703.41;;;23.77;43.04
46946;BME280;32679;40.810;14.498;2023-04-28T07:33:08;100700.91;;;23.79;41.75
46946;BME280;32679;40.810;14.498;2023-04-28T07:35:39;100694.91;;;24.26;40.54
46946;BME280;32679;40.810;14.498;2023-04-28T07:38:10;100697.19;;;23.66;42.15
46946;BME280;32679;40.810;14.498;2023-04-28T07:40:38;100706.28;;;24.59;40.05
46946;BME280;32679;40.810;14.498;2023-04-28T07:43:04;100703.09;;;25.56;37.76
46946;BME280;32679;40.810;14.498;2023-04-28T07:45:32;100707.19;;;24.55;38.80
46946;BME280;32679;40.810;14.498;2023-04-28T07:48:02;100716.38;;;23.78;37.87
46946;BME280;32679;40.810;14.498;2023-04-28T07:50:30;100716.69;;;24.33;39.32
46946;BME280;32679;40.810;14.498;2023-04-28T07:52:59;100717.09;;;25.38;37.78
46946;BME280;32679;40.810;14.498;2023-04-28T07:55:30;100715.44;;;25.53;38.18
46946;BME280;32679;40.810;14.498;2023-04-28T07:57:56;100702.03;;;24.96;36.89
46946;BME280;32679;40.810;14.498;2023-04-28T08:00:24;100724.44;;;25.65;36.75
46946;BME280;32679;40.810;14.498;2023-04-28T08:02:50;100713.31;;;25.96;34.74
46946;BME280;32679;40.810;14.498;2023-04-28T08:05:16;100717.41;;;26.33;33.25
46946;BME280;32679;40.810;14.498;2023-04-28T08:07:45;100719.56;;;25.23;32.89
46946;BME280;32679;40.810;14.498;2023-04-28T08:10:11;100722.81;;;24.93;30.65
46946;BME280;32679;40.810;14.498;2023-04-28T08:12:39;100723.38;;;25.46;30.26
46946;BME280;32679;40.810;14.498;2023-04-28T08:15:06;100713.75;;;26.20;31.29
46946;BME280;32679;40.810;14.498;2023-04-28T08:17:34;100717.69;;;26.95;31.32
46946;BME280;32679;40.810;14.498;2023-04-28T08:20:03;100721.16;;;26.90;29.66
46946;BME280;32679;40.810;14.498;2023-04-28T08:22:30;100729.59;;;26.33;31.13
46946;BME280;32679;40.810;14.498;2023-04-28T08:24:58;100729.06;;;26.00;30.43
46946;BME280;32679;40.810;14.498;2023-04-28T08:27:26;100725.94;;;26.58;30.44
46946;BME280;32679;40.810;14.498;2023-04-28T08:29:52;100727.97;;;27.27;29.31
46946;BME280;32679;40.810;14.498;2023-04-28T08:32:18;100736.41;;;26.74;30.39
46946;BME280;32679;40.810;14.498;2023-04-28T08:34:45;100744.78;;;26.18;30.79
46946;BME280;32679;40.810;14.498;2023-04-28T08:37:13;100733.06;;;25.48;31.94
46946;BME280;32679;40.810;14.498;2023-04-28T08:39:39;100736.06;;;25.16;31.99
46946;BME280;32679;40.810;14.498;2023-04-28T08:42:04;100733.16;;;25.32;32.06
46946;BME280;32679;40.810;14.498;2023-04-28T08:44:37;100738.28;;;25.79;30.95
46946;BME280;32679;40.810;14.498;2023-04-28T08:47:10;100738.84;;;26.25;31.32
46946;BME280;32679;40.810;14.498;2023-04-28T08:49:40;100736.19;;;27.25;30.14
46946;BME280;32679;40.810;14.498;2023-04-28T08:52:11;100743.47;;;28.01;28.95
46946;BME280;32679;40.810;14.498;2023-04-28T08:54:40;100741.91;;;26.56;29.50
46946;BME280;32679;40.810;14.498;2023-04-28T08:57:09;100740.97;;;27.06;29.51
46946;BME280;32679;40.810;14.498;2023-04-28T08:59:39;100746.44;;;27.13;29.56
46946;BME280;32679;40.810;14.498;2023-04-28T09:02:07;100744.59;;;26.85;29.12
46946;BME280;32679;40.810;14.498;2023-04-28T09:04:33;100738.94;;;26.34;31.25
46946;BME280;32679;40.810;14.498;2023-04-28T09:07:03;100741.25;;;26.86;30.77
46946;BME280;32679;40.810;14.498;2023-04-28T09:09:36;100723.31;;;26.51;31.81
46946;BME280;32679;40.810;14.498;2023-04-28T09:12:02;100729.63;;;25.95;33.24
46946;BME280;32679;40.810;14.498;2023-04-28T09:14:36;100722.66;;;25.96;32.05
46946;BME280;32679;40.810;14.498;2023-04-28T09:17:09;100731.88;;;26.38;32.95
46946;BME280;32679;40.810;14.498;2023-04-28T09:19:36;100732.75;;;25.59;34.50
46946;BME280;32679;40.810;14.498;2023-04-28T09:22:02;100727.34;;;26.03;32.08
46946;BME280;32679;40.810;14.498;2023-04-28T09:24:38;100729.16;;;26.82;30.48
46946;BME280;32679;40.810;14.498;2023-04-28T09:27:11;100728.28;;;27.07;30.17
46946;BME280;32679;40.810;14.498;2023-04-28T09:29:53;100725.44;;;27.07;29.64
46946;BME280;32679;40.810;14.498;2023-04-28T09:32:22;100731.00;;;27.55;27.42
46946;BME280;32679;40.810;14.498;2023-04-28T09:34:51;100725.03;;;27.93;27.49
46946;BME280;32679;40.810;14.498;2023-04-28T09:37:21;100728.13;;;27.77;27.78
46946;BME280;32679;40.810;14.498;2023-04-28T09:39:52;100730.28;;;27.20;26.71
46946;BME280;32679;40.810;14.498;2023-04-28T09:42:37;100737.81;;;26.44;30.02
46946;BME280;32679;40.810;14.498;2023-04-28T09:45:13;100721.97;;;26.43;28.87
46946;BME280;32679;40.810;14.498;2023-04-28T09:47:41;100732.47;;;26.81;28.12
46946;BME280;32679;40.810;14.498;2023-04-28T09:50:11;100730.19;;;27.32;27.25
46946;BME280;32679;40.810;14.498;2023-04-28T09:52:40;100718.09;;;27.72;26.85
46946;BME280;32679;40.810;14.498;2023-04-28T09:55:09;100699.91;;;26.91;26.99
46946;BME280;32679;40.810;14.498;2023-04-28T09:57:37;100720.81;;;27.54;27.00
46946;BME280;32679;40.810;14.498;2023-04-28T10:00:05;100721.59;;;28.07;25.50
46946;BME280;32679;40.810;14.498;2023-04-28T10:02:34;100713.31;;;26.08;27.78
46946;BME280;32679;40.810;14.498;2023-04-28T10:05:02;100708.72;;;27.06;27.07
46946;BME280;32679;40.810;14.498;2023-04-28T10:07:32;100694.69;;;26.77;26.80
46946;BME280;32679;40.810;14.498;2023-04-28T10:09:59;100690.34;;;26.85;25.75
46946;BME280;32679;40.810;14.498;2023-04-28T10:12:28;100677.88;;;26.57;26.83
46946;BME280;32679;40.810;14.498;2023-04-28T10:14:55;100673.63;;;26.61;27.53
46946;BME280;32679;40.810;14.498;2023-04-28T10:17:24;100668.41;;;26.47;28.59
46946;BME280;32679;40.810;14.498;2023-04-28T10:19:54;100664.28;;;26.83;28.74
46946;BME280;32679;40.810;14.498;2023-04-28T10:27:40;100652.91;;;26.48;29.89
46946;BME280;32679;40.810;14.498;2023-04-28T10:30:20;100645.84;;;26.75;28.75
46946;BME280;32679;40.810;14.498;2023-04-28T10:32:49;100651.25;;;27.17;27.47
46946;BME280;32679;40.810;14.498;2023-04-28T10:40:41;100637.59;;;26.55;27.31
46946;BME280;32679;40.810;14.498;2023-04-28T10:43:09;100617.44;;;26.93;26.67
46946;BME280;32679;40.810;14.498;2023-04-28T10:48:15;100628.41;;;27.17;25.19
46946;BME280;32679;40.810;14.498;2023-04-28T10:58:44;100627.06;;;26.86;24.25
46946;BME280;32679;40.810;14.498;2023-04-28T11:04:09;100627.94;;;26.96;21.62
46946;BME280;32679;40.810;14.498;2023-04-28T11:07:10;100630.94;;;27.46;20.26
46946;BME280;32679;40.810;14.498;2023-04-28T11:12:06;100626.25;;;27.61;21.09
46946;BME280;32679;40.810;14.498;2023-04-28T11:14:37;100598.84;;;27.73;20.54
46946;BME280;32679;40.810;14.498;2023-04-28T11:17:05;100631.91;;;27.21;20.54
46946;BME280;32679;40.810;14.498;2023-04-28T11:19:35;100623.69;;;27.63;20.20
46946;BME280;32679;40.810;14.498;2023-04-28T11:22:17;100621.44;;;27.49;21.79
46946;BME280;32679;40.810;14.498;2023-04-28T11:25:02;100620.59;;;26.95;22.53
46946;BME280;32679;40.810;14.498;2023-04-28T11:27:32;100627.09;;;27.71;21.36
46946;BME280;32679;40.810;14.498;2023-04-28T11:29:58;100626.53;;;27.94;20.82
46946;BME280;32679;40.810;14.498;2023-04-28T11:32:28;100604.16;;;27.61;21.80
46946;BME280;32679;40.810;14.498;2023-04-28T11:34:56;100633.00;;;28.35;20.05
46946;BME280;32679;40.810;14.498;2023-04-28T11:37:22;100631.56;;;27.72;21.71
46946;BME280;32679;40.810;14.498;2023-04-28T11:39:47;100639.22;;;27.84;19.96
46946;BME280;32679;40.810;14.498;2023-04-28T11:42:16;100628.63;;;27.31;20.27
46946;BME280;32679;40.810;14.498;2023-04-28T11:44:48;100620.59;;;26.95;20.28
46946;BME280;32679;40.810;14.498;2023-04-28T11:47:15;100619.41;;;26.14;18.31
46946;BME280;32679;40.810;14.498;2023-04-28T11:49:43;100614.06;;;26.16;19.34
46946;BME280;32679;40.810;14.498;2023-04-28T11:52:09;100616.38;;;26.78;19.62
46946;BME280;32679;40.810;14.498;2023-04-28T11:54:38;100634.28;;;25.96;20.79
46946;BME280;32679;40.810;14.498;2023-04-28T11:57:16;100632.94;;;26.35;19.09
46946;BME280;32679;40.810;14.498;2023-04-28T11:59:44;100635.41;;;25.99;20.82
46946;BME280;32679;40.810;14.498;2023-04-28T12:02:10;100640.53;;;26.04;21.03
46946;BME280;32679;40.810;14.498;2023-04-28T12:04:39;100633.00;;;26.23;22.29
46946;BME280;32679;40.810;14.498;2023-04-28T12:07:16;100631.00;;;25.05;21.52
46946;BME280;32679;40.810;14.498;2023-04-28T12:10:08;100628.44;;;26.12;22.09
46946;BME280;32679;40.810;14.498;2023-04-28T12:12:34;100635.06;;;26.09;20.21
46946;BME280;32679;40.810;14.498;2023-04-28T12:15:04;100634.75;;;25.69;20.88
46946;BME280;32679;40.810;14.498;2023-04-28T12:20:00;100619.56;;;26.10;20.49
46946;BME280;32679;40.810;14.498;2023-04-28T12:22:29;100624.16;;;25.70;20.25
46946;BME280;32679;40.810;14.498;2023-04-28T12:25:10;100630.63;;;25.45;20.84
46946;BME280;32679;40.810;14.498;2023-04-28T12:27:38;100620.47;;;25.56;20.83
46946;BME280;32679;40.810;14.498;2023-04-28T12:30:27;100631.22;;;25.52;22.70
46946;BME280;32679;40.810;14.498;2023-04-28T12:32:54;100626.84;;;25.10;22.70
46946;BME280;32679;40.810;14.498;2023-04-28T12:35:23;100623.44;;;25.66;23.63
46946;BME280;32679;40.810;14.498;2023-04-28T12:37:52;100620.16;;;25.42;23.20
46946;BME280;32679;40.810;14.498;2023-04-28T12:40:20;100624.72;;;25.65;23.28
46946;BME280;32679;40.810;14.498;2023-04-28T12:42:46;100616.50;;;25.41;24.09
46946;BME280;32679;40.810;14.498;2023-04-28T12:45:14;100616.31;;;24.65;26.31
46946;BME280;32679;40.810;14.498;2023-04-28T12:47:43;100612.38;;;25.29;25.68
46946;BME280;32679;40.810;14.498;2023-04-28T12:50:09;100610.97;;;24.38;27.34
46946;BME280;32679;40.810;14.498;2023-04-28T12:52:39;100612.84;;;24.86;26.32
46946;BME280;32679;40.810;14.498;2023-04-28T12:55:08;100603.88;;;25.00;25.85
46946;BME280;32679;40.810;14.498;2023-04-28T12:57:33;100609.47;;;24.62;25.83
46946;BME280;32679;40.810;14.498;2023-04-28T13:00:02;100615.69;;;24.86;25.81
46946;BME280;32679;40.810;14.498;2023-04-28T13:02:28;100614.78;;;24.89;25.46
46946;BME280;32679;40.810;14.498;2023-04-28T13:04:53;100602.13;;;24.32;27.21
46946;BME280;32679;40.810;14.498;2023-04-28T13:07:24;100603.03;;;24.45;26.33
46946;BME280;32679;40.810;14.498;2023-04-28T13:09:49;100606.97;;;24.93;25.73
46946;BME280;32679;40.810;14.498;2023-04-28T13:12:15;100593.53;;;24.65;26.56
46946;BME280;32679;40.810;14.498;2023-04-28T13:14:41;100608.41;;;24.11;30.37
46946;BME280;32679;40.810;14.498;2023-04-28T13:17:08;100605.00;;;24.90;29.50